Terminal Aerodrome Forecast
Issued by NWS Charleston, WV

Current Version | Previous Version | Text Only | Print | Product List | Glossary Off
Versions: 1 2 3 4 5 6 7 8 9 10 11 12 13 14 15 16 17 18 19 20 21

000
FTUS41 KRLX 081220 RRA
TAFEKN
TAF
KEKN 081220Z 0812/0912 27005KT P6SM BKN090
     FM081600 28009G16KT P6SM SCT080
     FM082000 28009G18KT P6SM BKN050
     FM090000 28010G22KT P6SM BKN035
     FM090700 29009G17KT P6SM OVC025
     FM091100 28009G18KT P6SM -SHSN BKN025=

USA.gov is the U.S. government's official web portal to all federal, state and local government web resources and services.